Time;durP1;ratioP1;P1;durP2;ratioP2;P2;SDS_P1;SDS_P2;PMS_P1;PMS_P2;Temp;Humidity;BMP_temperature;BMP_pressure;BME280_temperature;BME280_humidity;BME280_pressure;Samples;Min_cycle;Max_cycle;Signal;HPM_P1;HPM_P2
2021/10/15 00:01:00;;;;;;;;;;;;;;;;;;5112853;28;19931;-72
2021/10/15 00:03:26;;;;;;;;;;;;;;;;;;5113059;28;19931;-72
2021/10/15 00:05:53;;;;;;;;;;;;;;;;;;5112856;28;20518;-72
2021/10/15 00:08:19;;;;;;;;;;;;;;;;;;5112539;28;19923;-72
2021/10/15 00:10:45;;;;;;;;;;;;;;;;;;5113147;28;19923;-72
2021/10/15 00:13:11;;;;;;;;;;;;;;;;;;5112347;28;19931;-72
2021/10/15 00:15:38;;;;;;;;;;;;;;;;;;5112964;28;19931;-72
2021/10/15 00:18:04;;;;;;;;;;;;;;;;;;5112319;28;20297;-72
2021/10/15 00:20:31;;;;;;;;;;;;;;;;;;5112635;28;19924;-72
2021/10/15 00:22:57;;;;;;;;;;;;;;;;;;5112805;28;19924;-71
2021/10/15 00:25:23;;;;;;;;;;;;;;;;;;5112532;28;19928;-72
2021/10/15 00:27:49;;;;;;;;;;;;;;;;;;5112578;28;20405;-73
2021/10/15 00:30:16;;;;;;;;;;;;;;;;;;5112610;28;19924;-72
2021/10/15 00:32:42;;;;;;;;;;;;;;;;;;5112451;28;20302;-72
2021/10/15 00:35:08;;;;;;;;;;;;;;;;;;5112413;28;19924;-72
2021/10/15 00:37:35;;;;;;;;;;;;;;;;;;5112738;28;19923;-72
2021/10/15 00:40:01;;;;;;;;;;;;;;;;;;5112476;28;19923;-72
2021/10/15 00:42:27;;;;;;;;;;;;;;;;;;5112239;28;20369;-72
2021/10/15 00:44:54;;;;;;;;;;;;;;;;;;5112385;28;19928;-72
2021/10/15 00:47:20;;;;;;;;;;;;;;;;;;5112376;28;19930;-72
2021/10/15 00:49:46;;;;;;;;;;;;;;;;;;5112542;28;20258;-72
2021/10/15 00:52:12;;;;;;;;;;;;;;;;;;5112049;28;19924;-72
2021/10/15 00:54:39;;;;;;;;;;;;;;;;;;5112718;28;19939;-72
2021/10/15 00:57:05;;;;;;;;;;;;;;;;;;5111965;28;19972;-73
2021/10/15 00:59:31;;;;;;;;;;;;;;;;;;5113987;28;20382;-72
2021/10/15 01:01:58;;;;;;;;;;;;;;;;;;5115966;28;19931;-72
2021/10/15 01:04:24;;;;;;;;;;;;;;;;;;5115957;28;19927;-72
2021/10/15 01:06:50;;;;;;;;;;;;;;;;;;5115764;28;19930;-73
2021/10/15 01:09:17;;;;;;;;;;;;;;;;;;5115580;28;19924;-73
2021/10/15 01:11:43;;;;;;;;;;;;;;;;;;5116065;28;19923;-72
2021/10/15 01:14:09;;;;;;;;;;;;;;;;;;5115493;28;20378;-72
2021/10/15 01:16:35;;;;;;;;;;;;;;;;;;5115622;28;19924;-72
2021/10/15 01:19:02;;;;;;;;;;;;;;;;;;5115874;28;19923;-73
2021/10/15 01:21:28;;;;;;;;;;;;;;;;;;5115582;28;20370;-72
2021/10/15 01:23:54;;;;;;;;;;;;;;;;;;5115813;28;19928;-72
2021/10/15 01:26:21;;;;;;;;;;;;;;;;;;5115531;28;19923;-72
2021/10/15 01:28:47;;;;;;;;;;;;;;;;;;5115349;28;19931;-72
2021/10/15 01:31:13;;;;;;;;;;;;;;;;;;5115266;28;19931;-73
2021/10/15 01:33:40;;;;;;;;;;;;;;;;;;5115559;28;20408;-72
2021/10/15 01:36:06;;;;;;;;;;;;;;;;;;5115158;28;19924;-73
2021/10/15 01:38:32;;;;;;;;;;;;;;;;;;5115511;28;19924;-73
2021/10/15 01:40:58;;;;;;;;;;;;;;;;;;5115329;28;19924;-73
2021/10/15 01:43:25;;;;;;;;;;;;;;;;;;5115333;28;19934;-72
2021/10/15 01:45:51;;;;;;;;;;;;;;;;;;5115014;28;20297;-72
2021/10/15 01:48:17;;;;;;;;;;;;;;;;;;5114794;28;19924;-72
2021/10/15 01:50:44;;;;;;;;;;;;;;;;;;5115636;28;19946;-72
2021/10/15 01:53:10;;;;;;;;;;;;;;;;;;5114689;28;19930;-73
2021/10/15 01:55:36;;;;;;;;;;;;;;;;;;5115231;28;19924;-72
2021/10/15 01:58:03;;;;;;;;;;;;;;;;;;5114531;28;19978;-72
2021/10/15 02:00:29;;;;;;;;;;;;;;;;;;5114825;28;20290;-72
2021/10/15 02:02:55;;;;;;;;;;;;;;;;;;5114676;28;19928;-72
2021/10/15 02:05:22;;;;;;;;;;;;;;;;;;5114798;28;19924;-72
2021/10/15 02:07:48;;;;;;;;;;;;;;;;;;5114743;28;19930;-72
2021/10/15 02:10:14;;;;;;;;;;;;;;;;;;5113547;28;19938;-72
2021/10/15 02:12:40;;;;;;;;;;;;;;;;;;5114444;28;19946;-72
2021/10/15 02:15:07;;;;;;;;;;;;;;;;;;5114353;28;20409;-72
2021/10/15 02:17:33;;;;;;;;;;;;;;;;;;5114510;28;19930;-71
2021/10/15 02:19:59;;;;;;;;;;;;;;;;;;5114702;28;19931;-72
2021/10/15 02:22:26;;;;;;;;;;;;;;;;;;5114099;28;20302;-72
2021/10/15 02:24:52;;;;;;;;;;;;;;;;;;5114308;28;19924;-72
2021/10/15 02:27:18;;;;;;;;;;;;;;;;;;5114358;28;19923;-72
2021/10/15 02:29:45;;;;;;;;;;;;;;;;;;5114259;28;19924;-72
2021/10/15 02:32:11;;;;;;;;;;;;;;;;;;5114404;28;19924;-72
2021/10/15 02:34:37;;;;;;;;;;;;;;;;;;5114464;28;19923;-72
2021/10/15 02:37:03;;;;;;;;;;;;;;;;;;5113904;28;19931;-72
2021/10/15 02:39:30;;;;;;;;;;;;;;;;;;5114377;28;19923;-72
2021/10/15 02:41:56;;;;;;;;;;;;;;;;;;5114215;28;19928;-72
2021/10/15 02:44:22;;;;;;;;;;;;;;;;;;5113709;28;20243;-72
2021/10/15 02:46:49;;;;;;;;;;;;;;;;;;5114206;28;19931;-72
2021/10/15 02:49:15;;;;;;;;;;;;;;;;;;5113859;28;20416;-72
2021/10/15 02:51:41;;;;;;;;;;;;;;;;;;5113807;28;19924;-72
2021/10/15 02:54:07;;;;;;;;;;;;;;;;;;5113971;28;19923;-72
2021/10/15 02:56:34;;;;;;;;;;;;;;;;;;5113733;28;20412;-72
2021/10/15 02:59:00;;;;;;;;;;;;;;;;;;5113688;28;19924;-72
2021/10/15 03:01:26;;;;;;;;;;;;;;;;;;5113472;28;19928;-72
2021/10/15 03:03:53;;;;;;;;;;;;;;;;;;5113541;28;19931;-72
2021/10/15 03:06:19;;;;;;;;;;;;;;;;;;5113583;28;19924;-71
2021/10/15 03:08:45;;;;;;;;;;;;;;;;;;5113714;28;19992;-72
2021/10/15 03:11:12;;;;;;;;;;;;;;;;;;5113122;28;19931;-72
2021/10/15 03:13:38;;;;;;;;;;;;;;;;;;5113450;28;19930;-72
2021/10/15 03:16:04;;;;;;;;;;;;;;;;;;5113407;28;19930;-71
2021/10/15 03:18:30;;;;;;;;;;;;;;;;;;5113190;28;20378;-72
2021/10/15 03:20:57;;;;;;;;;;;;;;;;;;5113309;28;19928;-72
2021/10/15 03:23:23;;;;;;;;;;;;;;;;;;5112909;28;19977;-72
2021/10/15 03:25:49;;;;;;;;;;;;;;;;;;5113204;28;19924;-72
2021/10/15 03:28:16;;;;;;;;;;;;;;;;;;5113184;28;19924;-72
2021/10/15 03:30:42;;;;;;;;;;;;;;;;;;5113063;28;19931;-72
2021/10/15 03:33:08;;;;;;;;;;;;;;;;;;5112985;28;19928;-71
2021/10/15 03:35:34;;;;;;;;;;;;;;;;;;5113069;28;19931;-71
2021/10/15 03:38:01;;;;;;;;;;;;;;;;;;5113487;28;19924;-71
2021/10/15 03:40:27;;;;;;;;;;;;;;;;;;5112751;28;20305;-72
2021/10/15 03:42:53;;;;;;;;;;;;;;;;;;5113240;28;19935;-71
2021/10/15 03:45:20;;;;;;;;;;;;;;;;;;5112589;28;19924;-72
2021/10/15 03:47:46;;;;;;;;;;;;;;;;;;5113238;28;19931;-72
2021/10/15 03:50:13;;;;;;;;;;;;;;;;;;5112949;28;19932;-72
2021/10/15 03:52:39;;;;;;;;;;;;;;;;;;5112818;28;20296;-72
2021/10/15 03:55:05;;;;;;;;;;;;;;;;;;5112644;28;19924;-72
2021/10/15 03:57:32;;;;;;;;;;;;;;;;;;5112877;28;19946;-72
2021/10/15 03:59:58;;;;;;;;;;;;;;;;;;5112898;28;19924;-72
2021/10/15 04:02:24;;;;;;;;;;;;;;;;;;5112839;28;19930;-72
2021/10/15 04:04:51;;;;;;;;;;;;;;;;;;5113271;28;19924;-72
2021/10/15 04:07:17;;;;;;;;;;;;;;;;;;5112262;28;20411;-73
2021/10/15 04:09:43;;;;;;;;;;;;;;;;;;5112723;28;19930;-72
2021/10/15 04:12:10;;;;;;;;;;;;;;;;;;5112646;28;19923;-72
2021/10/15 04:14:36;;;;;;;;;;;;;;;;;;5112723;28;19924;-71
2021/10/15 04:17:02;;;;;;;;;;;;;;;;;;5112439;28;19931;-72
2021/10/15 04:19:28;;;;;;;;;;;;;;;;;;5112872;28;19931;-72
2021/10/15 04:21:55;;;;;;;;;;;;;;;;;;5112594;28;19931;-72
2021/10/15 04:24:21;;;;;;;;;;;;;;;;;;5112638;28;19924;-72
2021/10/15 04:26:47;;;;;;;;;;;;;;;;;;5112713;28;20405;-72
2021/10/15 04:29:14;;;;;;;;;;;;;;;;;;5112262;28;19930;-72
2021/10/15 04:31:40;;;;;;;;;;;;;;;;;;5112628;28;19930;-72
2021/10/15 04:34:06;;;;;;;;;;;;;;;;;;5113141;28;20405;-71
2021/10/15 04:36:33;;;;;;;;;;;;;;;;;;5116392;28;19931;-71
2021/10/15 04:38:59;;;;;;;;;;;;;;;;;;5116688;28;19924;-71
2021/10/15 04:41:25;;;;;;;;;;;;;;;;;;5116042;28;20378;-71
2021/10/15 04:43:51;;;;;;;;;;;;;;;;;;5116276;28;19924;-72
2021/10/15 04:46:18;;;;;;;;;;;;;;;;;;5116271;28;19928;-71
2021/10/15 04:48:44;;;;;;;;;;;;;;;;;;5116167;28;20378;-71
2021/10/15 04:51:10;;;;;;;;;;;;;;;;;;5116133;28;19923;-72
2021/10/15 04:53:37;;;;;;;;;;;;;;;;;;5116266;28;19923;-72
2021/10/15 04:56:03;;;;;;;;;;;;;;;;;;5115753;28;19931;-72
2021/10/15 04:58:29;;;;;;;;;;;;;;;;;;5115985;28;19923;-71
2021/10/15 05:00:56;;;;;;;;;;;;;;;;;;5115980;28;19923;-71
2021/10/15 05:03:22;;;;;;;;;;;;;;;;;;5115935;28;19930;-71
2021/10/15 05:05:48;;;;;;;;;;;;;;;;;;5115926;28;20275;-71
2021/10/15 05:08:16;;;;;;;;;;;;;;;;;;5115423;28;19924;-71
2021/10/15 05:10:42;;;;;;;;;;;;;;;;;;5115629;28;19924;-72
2021/10/15 05:13:09;;;;;;;;;;;;;;;;;;5115617;28;19924;-72
2021/10/15 05:15:35;;;;;;;;;;;;;;;;;;5115924;28;20011;-70
2021/10/15 05:18:01;;;;;;;;;;;;;;;;;;5115627;28;19931;-70
2021/10/15 05:20:28;;;;;;;;;;;;;;;;;;5115438;28;20158;-72
2021/10/15 05:22:54;;;;;;;;;;;;;;;;;;5115832;28;19927;-72
2021/10/15 05:25:20;;;;;;;;;;;;;;;;;;5115222;28;20301;-72
2021/10/15 05:27:46;;;;;;;;;;;;;;;;;;5115241;28;19923;-71
2021/10/15 05:30:13;;;;;;;;;;;;;;;;;;5115477;28;19924;-72
2021/10/15 05:32:39;;;;;;;;;;;;;;;;;;5115553;28;19924;-72
2021/10/15 05:35:05;;;;;;;;;;;;;;;;;;5115059;28;19924;-72
2021/10/15 05:37:32;;;;;;;;;;;;;;;;;;5115457;28;19924;-72
2021/10/15 05:39:58;;;;;;;;;;;;;;;;;;5115668;28;19950;-70
2021/10/15 05:42:24;;;;;;;;;;;;;;;;;;5114900;28;19930;-71
2021/10/15 05:44:50;;;;;;;;;;;;;;;;;;5115156;28;19923;-71
2021/10/15 05:47:17;;;;;;;;;;;;;;;;;;5115028;28;19923;-72
2021/10/15 05:49:43;;;;;;;;;;;;;;;;;;5115369;28;19923;-73
2021/10/15 05:52:11;;;;;;;;;;;;;;;;;;5114542;28;20370;-71
2021/10/15 05:54:48;;;;;;;;;;;;;;;;;;5115252;28;20022;-72
2021/10/15 05:58:49;;;;;;;;;;;;;;;;;;5114460;28;20397;-71
2021/10/15 06:00:21;;;;;;;;;;;;;;;;;;5114492;28;19924;-70
2021/10/15 06:02:47;;;;;;;;;;;;;;;;;;5114741;28;20339;-69
2021/10/15 06:16:15;;;;;;;;;;;;;;;;;;5114230;28;19919;-70
2021/10/15 06:18:46;;;;;;;;;;;;;;;;;;5114394;28;19924;-70
2021/10/15 06:21:12;;;;;;;;;;;;;;;;;;5114434;28;19924;-70
2021/10/15 06:23:38;;;;;;;;;;;;;;;;;;5114184;28;19928;-70
2021/10/15 06:26:05;;;;;;;;;;;;;;;;;;5114347;28;19924;-71
2021/10/15 06:28:31;;;;;;;;;;;;;;;;;;5114316;28;19923;-71
2021/10/15 06:30:57;;;;;;;;;;;;;;;;;;5114372;28;19924;-71
2021/10/15 06:33:24;;;;;;;;;;;;;;;;;;5114012;28;20374;-71
2021/10/15 06:35:50;;;;;;;;;;;;;;;;;;5114316;28;19930;-71
2021/10/15 06:38:16;;;;;;;;;;;;;;;;;;5113723;28;19924;-71
2021/10/15 06:40:43;;;;;;;;;;;;;;;;;;5114323;28;20266;-70
2021/10/15 06:43:11;;;;;;;;;;;;;;;;;;5113702;28;19928;-71
2021/10/15 06:45:37;;;;;;;;;;;;;;;;;;5114048;28;20320;-70
2021/10/15 06:48:03;;;;;;;;;;;;;;;;;;5113555;28;19924;-70
2021/10/15 06:50:30;;;;;;;;;;;;;;;;;;5113985;28;19924;-71
2021/10/15 06:52:57;;;;;;;;;;;;;;;;;;5113638;28;19931;-70
2021/10/15 06:55:23;;;;;;;;;;;;;;;;;;5113877;28;19934;-70
2021/10/15 06:57:49;;;;;;;;;;;;;;;;;;5113098;28;20503;-71
2021/10/15 07:00:15;;;;;;;;;;;;;;;;;;5113616;28;19923;-71
2021/10/15 07:02:42;;;;;;;;;;;;;;;;;;5113885;28;19923;-71
2021/10/15 07:05:08;;;;;;;;;;;;;;;;;;5113320;28;19931;-70
2021/10/15 07:07:34;;;;;;;;;;;;;;;;;;5113490;28;19930;-70
2021/10/15 07:10:02;;;;;;;;;;;;;;;;;;5113861;28;19924;-70
2021/10/15 07:12:29;;;;;;;;;;;;;;;;;;5113672;28;19935;-71
2021/10/15 07:14:55;;;;;;;;;;;;;;;;;;5113514;28;20073;-70
2021/10/15 07:17:21;;;;;;;;;;;;;;;;;;5113118;28;19969;-70
2021/10/15 07:19:48;;;;;;;;;;;;;;;;;;5113596;28;19924;-69
2021/10/15 07:22:14;;;;;;;;;;;;;;;;;;5113006;28;19924;-69
2021/10/15 07:24:40;;;;;;;;;;;;;;;;;;5113494;28;19934;-70
2021/10/15 07:27:06;;;;;;;;;;;;;;;;;;5112833;28;20382;-71
2021/10/15 07:29:33;;;;;;;;;;;;;;;;;;5113142;28;19924;-70
2021/10/15 07:32:00;;;;;;;;;;;;;;;;;;5113463;28;19947;-71
2021/10/15 07:34:26;;;;;;;;;;;;;;;;;;5112871;28;19932;-70
2021/10/15 07:36:52;;;;;;;;;;;;;;;;;;5113373;28;19924;-71
2021/10/15 07:39:19;;;;;;;;;;;;;;;;;;5112737;28;19924;-71
2021/10/15 07:41:45;;;;;;;;;;;;;;;;;;5113200;28;19931;-71
2021/10/15 07:44:12;;;;;;;;;;;;;;;;;;5112746;28;19924;-71
2021/10/15 07:46:38;;;;;;;;;;;;;;;;;;5113175;28;19924;-71
2021/10/15 07:49:05;;;;;;;;;;;;;;;;;;5112669;28;19931;-71
2021/10/15 07:51:31;;;;;;;;;;;;;;;;;;5113245;28;19939;-71
2021/10/15 07:53:57;;;;;;;;;;;;;;;;;;5112714;28;20374;-70
2021/10/15 07:56:24;;;;;;;;;;;;;;;;;;5112574;28;19924;-71
2021/10/15 07:58:50;;;;;;;;;;;;;;;;;;5112689;28;19951;-73
2021/10/15 08:01:16;;;;;;;;;;;;;;;;;;5112433;28;19931;-73
2021/10/15 08:03:43;;;;;;;;;;;;;;;;;;5112934;28;19924;-73
2021/10/15 08:06:09;;;;;;;;;;;;;;;;;;5112512;28;19931;-72
2021/10/15 08:08:35;;;;;;;;;;;;;;;;;;5112950;28;19923;-72
2021/10/15 08:11:01;;;;;;;;;;;;;;;;;;5116905;28;20386;-72
2021/10/15 08:13:28;;;;;;;;;;;;;;;;;;5116906;28;19931;-73
2021/10/15 08:15:54;;;;;;;;;;;;;;;;;;5117159;28;19927;-72
2021/10/15 08:18:21;;;;;;;;;;;;;;;;;;5116517;28;20361;-71
2021/10/15 08:20:47;;;;;;;;;;;;;;;;;;5116759;28;19924;-72
2021/10/15 08:23:13;;;;;;;;;;;;;;;;;;5116645;28;20028;-71
2021/10/15 08:25:41;;;;;;;;;;;;;;;;;;5116733;28;20398;-71
2021/10/15 08:28:08;;;;;;;;;;;;;;;;;;5116594;28;19924;-71
2021/10/15 08:30:34;;;;;;;;;;;;;;;;;;5116621;28;19930;-73
2021/10/15 08:33:00;;;;;;;;;;;;;;;;;;5116777;28;19928;-72
2021/10/15 08:35:27;;;;;;;;;;;;;;;;;;5116185;28;20278;-73
2021/10/15 08:37:53;;;;;;;;;;;;;;;;;;5116735;28;19931;-73
2021/10/15 08:40:19;;;;;;;;;;;;;;;;;;5116249;28;19930;-73
2021/10/15 08:42:46;;;;;;;;;;;;;;;;;;5116630;28;19924;-72
2021/10/15 08:45:12;;;;;;;;;;;;;;;;;;5115812;28;19924;-72
2021/10/15 08:47:38;;;;;;;;;;;;;;;;;;5116298;28;19930;-72
2021/10/15 08:50:04;;;;;;;;;;;;;;;;;;5116354;28;19931;-71
2021/10/15 08:52:31;;;;;;;;;;;;;;;;;;5116130;28;20413;-72
2021/10/15 08:54:57;;;;;;;;;;;;;;;;;;5116337;28;19923;-72
2021/10/15 08:57:23;;;;;;;;;;;;;;;;;;5115536;28;20298;-72
2021/10/15 08:59:50;;;;;;;;;;;;;;;;;;5116265;28;19932;-72
2021/10/15 09:02:17;;;;;;;;;;;;;;;;;;5115886;28;19924;-71
2021/10/15 09:04:43;;;;;;;;;;;;;;;;;;5116122;28;19924;-72
2021/10/15 09:07:11;;;;;;;;;;;;;;;;;;5115581;28;20321;-72
2021/10/15 09:09:37;;;;;;;;;;;;;;;;;;5116023;28;19923;-73
2021/10/15 09:12:03;;;;;;;;;;;;;;;;;;5115434;28;20393;-73
2021/10/15 09:14:30;;;;;;;;;;;;;;;;;;5115923;28;19923;-72
2021/10/15 09:16:56;;;;;;;;;;;;;;;;;;5115873;28;19923;-73
2021/10/15 09:19:22;;;;;;;;;;;;;;;;;;5115128;28;20387;-72
2021/10/15 09:21:49;;;;;;;;;;;;;;;;;;5115385;28;19928;-73
2021/10/15 09:24:15;;;;;;;;;;;;;;;;;;5115350;28;19923;-72
2021/10/15 09:26:42;;;;;;;;;;;;;;;;;;5115243;28;19935;-72
2021/10/15 09:29:08;;;;;;;;;;;;;;;;;;5115032;28;19954;-72
2021/10/15 09:31:35;;;;;;;;;;;;;;;;;;5115536;28;19923;-72
2021/10/15 09:34:01;;;;;;;;;;;;;;;;;;5115490;28;19927;-72
2021/10/15 09:36:27;;;;;;;;;;;;;;;;;;5114902;28;19924;-73
2021/10/15 09:38:54;;;;;;;;;;;;;;;;;;5115121;28;19975;-72
2021/10/15 09:41:20;;;;;;;;;;;;;;;;;;5114985;28;20385;-73
2021/10/15 09:43:46;;;;;;;;;;;;;;;;;;5115273;28;19924;-73
2021/10/15 09:46:13;;;;;;;;;;;;;;;;;;5115031;28;19923;-73
2021/10/15 09:48:39;;;;;;;;;;;;;;;;;;5114966;28;19924;-73
2021/10/15 09:51:06;;;;;;;;;;;;;;;;;;5114579;28;19924;-73
2021/10/15 09:53:32;;;;;;;;;;;;;;;;;;5114892;28;19924;-73
2021/10/15 09:55:58;;;;;;;;;;;;;;;;;;5115221;28;19931;-73
2021/10/15 09:58:25;;;;;;;;;;;;;;;;;;5114345;28;19924;-74
2021/10/15 10:00:51;;;;;;;;;;;;;;;;;;5115145;28;19928;-72
2021/10/15 10:03:17;;;;;;;;;;;;;;;;;;5114834;28;19924;-72
2021/10/15 10:05:43;;;;;;;;;;;;;;;;;;5114681;28;19931;-73
2021/10/15 10:08:10;;;;;;;;;;;;;;;;;;5114664;28;19931;-73
2021/10/15 10:10:37;;;;;;;;;;;;;;;;;;5115045;28;19973;-72
2021/10/15 10:13:03;;;;;;;;;;;;;;;;;;5114334;28;20378;-73
2021/10/15 10:15:29;;;;;;;;;;;;;;;;;;5114893;28;19924;-73
2021/10/15 10:17:55;;;;;;;;;;;;;;;;;;5114823;28;19924;-72
2021/10/15 10:20:22;;;;;;;;;;;;;;;;;;5114098;28;20371;-72
2021/10/15 10:22:48;;;;;;;;;;;;;;;;;;5114397;28;19923;-73
2021/10/15 10:25:14;;;;;;;;;;;;;;;;;;5114443;28;19930;-72
2021/10/15 10:27:43;;;;;;;;;;;;;;;;;;5114185;28;20397;-73
2021/10/15 10:30:09;;;;;;;;;;;;;;;;;;5114046;28;20392;-72
2021/10/15 10:32:35;;;;;;;;;;;;;;;;;;5113154;28;19924;-73
2021/10/15 10:35:02;;;;;;;;;;;;;;;;;;5114404;28;19928;-71
2021/10/15 10:37:28;;;;;;;;;;;;;;;;;;5114425;28;20002;-73
2021/10/15 10:39:54;;;;;;;;;;;;;;;;;;5114078;28;19928;-72
2021/10/15 10:42:24;;;;;;;;;;;;;;;;;;5114124;28;19924;-72
2021/10/15 10:44:50;;;;;;;;;;;;;;;;;;5113953;28;19966;-72
2021/10/15 10:47:16;;;;;;;;;;;;;;;;;;5113900;28;19931;-73
2021/10/15 10:49:43;;;;;;;;;;;;;;;;;;5113876;28;20305;-73
2021/10/15 10:52:09;;;;;;;;;;;;;;;;;;5113545;28;19930;-73
2021/10/15 10:54:35;;;;;;;;;;;;;;;;;;5113975;28;19924;-72
2021/10/15 10:57:02;;;;;;;;;;;;;;;;;;5113570;28;20466;-73
2021/10/15 10:59:28;;;;;;;;;;;;;;;;;;5113969;27;19988;-72
2021/10/15 11:01:54;;;;;;;;;;;;;;;;;;5113584;28;19934;-72
2021/10/15 11:04:21;;;;;;;;;;;;;;;;;;5113356;28;20046;-72
2021/10/15 11:06:47;;;;;;;;;;;;;;;;;;5114100;28;19924;-73
2021/10/15 11:09:13;;;;;;;;;;;;;;;;;;5113071;28;19924;-72
2021/10/15 11:11:40;;;;;;;;;;;;;;;;;;5113762;28;19924;-73
2021/10/15 11:14:06;;;;;;;;;;;;;;;;;;5112896;28;20026;-73
2021/10/15 11:16:33;;;;;;;;;;;;;;;;;;5113799;28;19923;-74
2021/10/15 11:18:59;;;;;;;;;;;;;;;;;;5113361;28;19924;-73
2021/10/15 11:21:25;;;;;;;;;;;;;;;;;;5113314;28;19931;-73
2021/10/15 11:23:52;;;;;;;;;;;;;;;;;;5113275;28;20524;-73
2021/10/15 11:26:19;;;;;;;;;;;;;;;;;;5112990;28;19923;-73
2021/10/15 11:28:45;;;;;;;;;;;;;;;;;;5113462;28;19924;-73
2021/10/15 11:31:12;;;;;;;;;;;;;;;;;;5112923;28;20389;-73
2021/10/15 11:33:39;;;;;;;;;;;;;;;;;;5112986;28;19923;-73
2021/10/15 11:36:05;;;;;;;;;;;;;;;;;;5112806;28;19955;-73
2021/10/15 11:38:31;;;;;;;;;;;;;;;;;;5113356;28;19924;-73
2021/10/15 11:40:58;;;;;;;;;;;;;;;;;;5113019;28;20370;-73
2021/10/15 11:43:24;;;;;;;;;;;;;;;;;;5112453;28;19928;-73
2021/10/15 11:45:51;;;;;;;;;;;;;;;;;;5112862;28;20374;-73
2021/10/15 11:48:17;;;;;;;;;;;;;;;;;;5112842;28;19930;-73
2021/10/15 11:50:43;;;;;;;;;;;;;;;;;;5113401;28;19943;-74
2021/10/15 11:53:10;;;;;;;;;;;;;;;;;;5112685;28;20297;-73
2021/10/15 11:55:36;;;;;;;;;;;;;;;;;;5112669;28;19931;-74
2021/10/15 11:58:02;;;;;;;;;;;;;;;;;;5112867;28;19931;-73
2021/10/15 12:00:28;;;;;;;;;;;;;;;;;;5113110;28;20022;-73
2021/10/15 12:02:55;;;;;;;;;;;;;;;;;;5112743;28;19935;-73
2021/10/15 12:05:21;;;;;;;;;;;;;;;;;;5112663;28;20519;-72
2021/10/15 12:07:47;;;;;;;;;;;;;;;;;;5112919;28;19924;-73
2021/10/15 12:10:14;;;;;;;;;;;;;;;;;;5112650;28;19924;-74
2021/10/15 12:12:40;;;;;;;;;;;;;;;;;;5112675;28;19924;-73
2021/10/15 12:15:06;;;;;;;;;;;;;;;;;;5112666;28;19938;-73
2021/10/15 12:17:33;;;;;;;;;;;;;;;;;;5112643;28;20293;-73
2021/10/15 12:19:59;;;;;;;;;;;;;;;;;;5112711;28;19924;-73
2021/10/15 12:22:25;;;;;;;;;;;;;;;;;;5112609;28;19923;-73
2021/10/15 12:24:51;;;;;;;;;;;;;;;;;;5112499;28;19924;-73
2021/10/15 12:27:18;;;;;;;;;;;;;;;;;;5112281;28;19924;-73
2021/10/15 12:29:45;;;;;;;;;;;;;;;;;;5112216;28;20286;-74
2021/10/15 12:32:11;;;;;;;;;;;;;;;;;;5112147;28;19923;-74
2021/10/15 12:34:37;;;;;;;;;;;;;;;;;;5112534;28;19924;-73
2021/10/15 12:37:03;;;;;;;;;;;;;;;;;;5112312;28;19946;-74
2021/10/15 12:39:30;;;;;;;;;;;;;;;;;;5112368;28;19924;-73
2021/10/15 12:41:56;;;;;;;;;;;;;;;;;;5112219;28;19996;-73
2021/10/15 12:44:22;;;;;;;;;;;;;;;;;;5112351;28;20083;-73
2021/10/15 12:46:49;;;;;;;;;;;;;;;;;;5112352;28;19928;-73
2021/10/15 12:49:15;;;;;;;;;;;;;;;;;;5112406;28;19924;-71
2021/10/15 12:51:43;;;;;;;;;;;;;;;;;;5112331;28;20322;-73
2021/10/15 12:54:09;;;;;;;;;;;;;;;;;;5111940;28;20255;-71
2021/10/15 12:56:38;;;;;;;;;;;;;;;;;;5115324;28;19924;-75
2021/10/15 12:59:05;;;;;;;;;;;;;;;;;;5115683;28;19974;-73
2021/10/15 13:01:31;;;;;;;;;;;;;;;;;;5116107;28;19937;-79
2021/10/15 13:03:58;;;;;;;;;;;;;;;;;;5116015;28;20296;-80
2021/10/15 13:06:24;;;;;;;;;;;;;;;;;;5116433;28;19924;-76
2021/10/15 13:08:50;;;;;;;;;;;;;;;;;;5115876;28;19923;-74
2021/10/15 13:11:18;;;;;;;;;;;;;;;;;;5115854;28;19924;-76
2021/10/15 13:13:44;;;;;;;;;;;;;;;;;;5115800;28;19924;-75
2021/10/15 13:16:10;;;;;;;;;;;;;;;;;;5115662;28;19924;-75
2021/10/15 13:18:37;;;;;;;;;;;;;;;;;;5115566;28;19923;-75
2021/10/15 13:21:03;;;;;;;;;;;;;;;;;;5115646;28;19935;-75
2021/10/15 13:23:29;;;;;;;;;;;;;;;;;;5115882;28;19924;-75
2021/10/15 13:25:55;;;;;;;;;;;;;;;;;;5115630;28;19923;-75
2021/10/15 13:28:22;;;;;;;;;;;;;;;;;;5115436;28;19931;-77
2021/10/15 13:30:49;;;;;;;;;;;;;;;;;;5115338;28;20312;-69
2021/10/15 13:33:15;;;;;;;;;;;;;;;;;;5115518;28;19928;-74
2021/10/15 13:35:46;;;;;;;;;;;;;;;;;;5115288;28;19924;-69
2021/10/15 13:38:14;;;;;;;;;;;;;;;;;;5115255;28;19978;-74
2021/10/15 13:40:51;;;;;;;;;;;;;;;;;;5115691;28;19969;-79
2021/10/15 13:43:22;;;;;;;;;;;;;;;;;;5114998;28;20378;-75
2021/10/15 13:45:52;;;;;;;;;;;;;;;;;;5115218;28;19924;-70
2021/10/15 13:51:02;;;;;;;;;;;;;;;;;;5115136;28;20277;-73
2021/10/15 13:53:30;;;;;;;;;;;;;;;;;;5114925;28;19923;-73
2021/10/15 13:55:59;;;;;;;;;;;;;;;;;;5114849;28;19978;-73
2021/10/15 13:58:29;;;;;;;;;;;;;;;;;;5114581;28;19927;-75
2021/10/15 14:01:00;;;;;;;;;;;;;;;;;;5115198;28;19923;-75
2021/10/15 14:06:10;;;;;;;;;;;;;;;;;;5082904;28;19967;-73
2021/10/15 14:08:36;;;;;;;;;;;;;;;;;;5114822;28;19924;-73
2021/10/15 14:11:03;;;;;;;;;;;;;;;;;;5114849;28;19947;-73
2021/10/15 14:13:30;;;;;;;;;;;;;;;;;;5114885;28;19969;-73
2021/10/15 14:15:56;;;;;;;;;;;;;;;;;;5114438;28;20366;-73
2021/10/15 14:18:23;;;;;;;;;;;;;;;;;;5114674;28;20361;-73
2021/10/15 14:20:50;;;;;;;;;;;;;;;;;;5114791;28;19946;-73
2021/10/15 14:23:17;;;;;;;;;;;;;;;;;;5114330;28;19930;-72
2021/10/15 14:25:43;;;;;;;;;;;;;;;;;;5114429;28;20266;-72
2021/10/15 14:28:11;;;;;;;;;;;;;;;;;;5114090;28;19924;-73
2021/10/15 14:30:38;;;;;;;;;;;;;;;;;;5114710;28;19923;-72
2021/10/15 14:33:04;;;;;;;;;;;;;;;;;;5114230;28;20014;-72
2021/10/15 14:35:30;;;;;;;;;;;;;;;;;;5113955;28;20382;-72
2021/10/15 14:37:56;;;;;;;;;;;;;;;;;;5114144;28;19924;-72
2021/10/15 14:40:23;;;;;;;;;;;;;;;;;;5114176;28;20325;-72
2021/10/15 14:42:49;;;;;;;;;;;;;;;;;;5114011;28;20374;-73
2021/10/15 14:45:15;;;;;;;;;;;;;;;;;;5113689;28;19930;-73
2021/10/15 14:47:42;;;;;;;;;;;;;;;;;;5113776;28;19967;-72
2021/10/15 14:50:08;;;;;;;;;;;;;;;;;;5113922;28;19924;-72
2021/10/15 14:52:34;;;;;;;;;;;;;;;;;;5113780;28;19935;-73
2021/10/15 14:55:01;;;;;;;;;;;;;;;;;;5113581;28;19930;-73
2021/10/15 14:57:27;;;;;;;;;;;;;;;;;;5113391;28;19931;-72
2021/10/15 14:59:53;;;;;;;;;;;;;;;;;;5113618;28;19923;-72
2021/10/15 15:02:20;;;;;;;;;;;;;;;;;;5113750;28;19924;-73
2021/10/15 15:04:48;;;;;;;;;;;;;;;;;;5112776;28;20463;-73
2021/10/15 15:07:14;;;;;;;;;;;;;;;;;;5113638;28;19958;-73
2021/10/15 15:09:43;;;;;;;;;;;;;;;;;;5113876;28;19931;-73
2021/10/15 15:12:10;;;;;;;;;;;;;;;;;;5113477;28;20011;-73
2021/10/15 15:14:36;;;;;;;;;;;;;;;;;;5113394;28;20382;-71
2021/10/15 15:17:02;;;;;;;;;;;;;;;;;;5113406;28;19924;-73
2021/10/15 15:19:29;;;;;;;;;;;;;;;;;;5113142;28;19923;-73
2021/10/15 15:21:56;;;;;;;;;;;;;;;;;;5111663;28;19931;-71
2021/10/15 15:24:23;;;;;;;;;;;;;;;;;;5112835;28;19924;-71
2021/10/15 15:26:49;;;;;;;;;;;;;;;;;;5113491;28;20018;-71
2021/10/15 15:29:17;;;;;;;;;;;;;;;;;;5113476;28;20051;-72
2021/10/15 15:31:43;;;;;;;;;;;;;;;;;;5113335;28;19924;-72
2021/10/15 15:34:09;;;;;;;;;;;;;;;;;;5112955;28;19924;-72
2021/10/15 15:36:36;;;;;;;;;;;;;;;;;;5113447;28;19924;-71
2021/10/15 15:39:03;;;;;;;;;;;;;;;;;;5112988;28;19924;-72
2021/10/15 15:41:29;;;;;;;;;;;;;;;;;;5113059;28;20369;-72
2021/10/15 15:43:59;;;;;;;;;;;;;;;;;;5113117;28;19945;-72
2021/10/15 15:46:25;;;;;;;;;;;;;;;;;;5113184;28;19943;-72
2021/10/15 15:48:52;;;;;;;;;;;;;;;;;;5113013;28;20404;-71
2021/10/15 15:51:18;;;;;;;;;;;;;;;;;;5112884;28;19931;-71
2021/10/15 15:53:44;;;;;;;;;;;;;;;;;;5113076;28;19927;-71
2021/10/15 15:56:11;;;;;;;;;;;;;;;;;;5112412;28;19924;-71
2021/10/15 15:58:37;;;;;;;;;;;;;;;;;;5112806;28;19931;-70
2021/10/15 16:01:03;;;;;;;;;;;;;;;;;;5112959;28;20409;-71
2021/10/15 16:03:30;;;;;;;;;;;;;;;;;;5112782;28;19924;-71
2021/10/15 16:05:56;;;;;;;;;;;;;;;;;;5112717;28;20010;-70
2021/10/15 16:08:22;;;;;;;;;;;;;;;;;;5112977;28;19924;-70
2021/10/15 16:10:48;;;;;;;;;;;;;;;;;;5113049;28;19930;-71
2021/10/15 16:13:15;;;;;;;;;;;;;;;;;;5112697;28;19927;-70
2021/10/15 16:15:44;;;;;;;;;;;;;;;;;;5112863;28;19924;-70
2021/10/15 16:18:10;;;;;;;;;;;;;;;;;;5112304;28;19962;-70
2021/10/15 16:20:36;;;;;;;;;;;;;;;;;;5113149;28;19924;-71
2021/10/15 16:23:03;;;;;;;;;;;;;;;;;;5112678;28;19931;-71
2021/10/15 16:25:29;;;;;;;;;;;;;;;;;;5112807;28;19924;-71
2021/10/15 16:27:56;;;;;;;;;;;;;;;;;;5112798;28;19931;-72
2021/10/15 16:30:22;;;;;;;;;;;;;;;;;;5113471;28;19970;-71
2021/10/15 16:32:49;;;;;;;;;;;;;;;;;;5116852;28;19930;-71
2021/10/15 16:35:15;;;;;;;;;;;;;;;;;;5116152;28;19928;-71
2021/10/15 16:37:43;;;;;;;;;;;;;;;;;;5116882;28;19924;-71
2021/10/15 16:40:10;;;;;;;;;;;;;;;;;;5116639;28;19924;-70
2021/10/15 16:42:36;;;;;;;;;;;;;;;;;;5116449;28;19931;-70
2021/10/15 16:45:02;;;;;;;;;;;;;;;;;;5116381;28;19923;-70
2021/10/15 16:47:28;;;;;;;;;;;;;;;;;;5116780;28;19924;-70
2021/10/15 16:49:55;;;;;;;;;;;;;;;;;;5116221;28;19927;-70
2021/10/15 16:52:21;;;;;;;;;;;;;;;;;;5116265;28;19923;-70
2021/10/15 16:54:48;;;;;;;;;;;;;;;;;;5116524;28;19924;-70
2021/10/15 16:57:14;;;;;;;;;;;;;;;;;;5115813;28;19924;-70